Weather at Stare Juchy Landing Site

Public forecast

Using degrees Celsius for public forecast. Weather courtesy of forecast.io.

Closest aviation weather report (METAR) to Stare Juchy Landing Site

Closest report is Olsztyn-Mazury Airport, 52.7 nm (97.5 km) WSW.

2023/04/01 19:00 (retrieved 33 minutes ago)

EPSY 011900Z 36010KT 9999 OVC009 05/04 Q1003

Closest aviation forecast (TAF) to Stare Juchy Landing Site

Closest forecast is Khrabrovo Airport, 82.3 nm (152.4 km) NW.

2023/04/01 18:21 (retrieved 1 hour ago)

TAF UMKK 011656Z 0118/0218 01005G10MPS 6000 BKN006 TEMPO 0118/0124 2700 -DZ BR BKN004 BECMG 0200/0202 01007G15MPS BKN017 TEMPO 0212/0215 35008G17MPS